sensor_id;sensor_type;location;lat;lon;timestamp;P1;durP1;ratioP1;P2;durP2;ratioP2
16304;SDS011;8261;47.678;-122.174;2022-12-24T01:00:49;5.30;;;3.17;;
16304;SDS011;8261;47.678;-122.174;2022-12-24T01:03:27;4.13;;;3.40;;
16304;SDS011;8261;47.678;-122.174;2022-12-24T01:06:14;4.07;;;3.60;;
16304;SDS011;8261;47.678;-122.174;2022-12-24T01:08:49;5.83;;;3.27;;
16304;SDS011;8261;47.678;-122.174;2022-12-24T01:11:48;5.37;;;3.57;;
16304;SDS011;8261;47.678;-122.174;2022-12-24T01:14:42;4.47;;;3.07;;
16304;SDS011;8261;47.678;-122.174;2022-12-24T01:17:30;4.20;;;3.07;;
16304;SDS011;8261;47.678;-122.174;2022-12-24T01:20:03;3.90;;;3.40;;
16304;SDS011;8261;47.678;-122.174;2022-12-24T01:22:44;5.40;;;3.17;;
16304;SDS011;8261;47.678;-122.174;2022-12-24T01:25:22;3.90;;;2.97;;
16304;SDS011;8261;47.678;-122.174;2022-12-24T01:27:53;4.20;;;3.20;;
16304;SDS011;8261;47.678;-122.174;2022-12-24T01:30:26;4.73;;;3.27;;
16304;SDS011;8261;47.678;-122.174;2022-12-24T01:33:01;4.17;;;2.80;;
16304;SDS011;8261;47.678;-122.174;2022-12-24T01:35:44;5.67;;;2.73;;
16304;SDS011;8261;47.678;-122.174;2022-12-24T01:38:18;2.83;;;2.47;;
16304;SDS011;8261;47.678;-122.174;2022-12-24T01:40:53;3.00;;;2.43;;
16304;SDS011;8261;47.678;-122.174;2022-12-24T01:43:41;5.17;;;2.30;;
16304;SDS011;8261;47.678;-122.174;2022-12-24T01:46:30;3.13;;;2.20;;
16304;SDS011;8261;47.678;-122.174;2022-12-24T01:49:04;4.17;;;2.37;;
16304;SDS011;8261;47.678;-122.174;2022-12-24T01:51:48;3.37;;;1.97;;
16304;SDS011;8261;47.678;-122.174;2022-12-24T01:54:29;4.13;;;2.17;;
16304;SDS011;8261;47.678;-122.174;2022-12-24T01:57:08;1.53;;;1.43;;
16304;SDS011;8261;47.678;-122.174;2022-12-24T01:59:49;2.20;;;1.97;;
16304;SDS011;8261;47.678;-122.174;2022-12-24T02:02:26;1.97;;;1.77;;
16304;SDS011;8261;47.678;-122.174;2022-12-24T02:05:04;2.40;;;1.90;;
16304;SDS011;8261;47.678;-122.174;2022-12-24T02:07:44;2.53;;;1.90;;
16304;SDS011;8261;47.678;-122.174;2022-12-24T02:10:17;3.97;;;2.17;;
16304;SDS011;8261;47.678;-122.174;2022-12-24T02:12:48;2.27;;;1.80;;
16304;SDS011;8261;47.678;-122.174;2022-12-24T02:15:21;1.67;;;1.50;;
16304;SDS011;8261;47.678;-122.174;2022-12-24T02:17:58;5.63;;;2.20;;
16304;SDS011;8261;47.678;-122.174;2022-12-24T02:20:52;2.50;;;1.63;;
16304;SDS011;8261;47.678;-122.174;2022-12-24T02:26:56;2.73;;;1.63;;
16304;SDS011;8261;47.678;-122.174;2022-12-24T02:32:35;2.97;;;1.73;;
16304;SDS011;8261;47.678;-122.174;2022-12-24T02:35:15;1.97;;;1.67;;
16304;SDS011;8261;47.678;-122.174;2022-12-24T02:37:51;3.43;;;2.03;;
16304;SDS011;8261;47.678;-122.174;2022-12-24T02:40:27;4.83;;;2.50;;
16304;SDS011;8261;47.678;-122.174;2022-12-24T02:43:04;3.57;;;2.37;;
16304;SDS011;8261;47.678;-122.174;2022-12-24T02:45:44;4.70;;;2.63;;
16304;SDS011;8261;47.678;-122.174;2022-12-24T02:48:25;3.47;;;2.53;;
16304;SDS011;8261;47.678;-122.174;2022-12-24T02:51:02;3.37;;;2.10;;
16304;SDS011;8261;47.678;-122.174;2022-12-24T02:53:37;5.50;;;2.10;;
16304;SDS011;8261;47.678;-122.174;2022-12-24T02:56:28;2.47;;;2.23;;
16304;SDS011;8261;47.678;-122.174;2022-12-24T02:59:11;4.37;;;2.50;;
16304;SDS011;8261;47.678;-122.174;2022-12-24T03:01:56;4.73;;;2.07;;
16304;SDS011;8261;47.678;-122.174;2022-12-24T03:04:38;4.83;;;2.23;;
16304;SDS011;8261;47.678;-122.174;2022-12-24T03:07:25;2.67;;;2.30;;
16304;SDS011;8261;47.678;-122.174;2022-12-24T03:10:06;3.73;;;2.23;;
16304;SDS011;8261;47.678;-122.174;2022-12-24T03:12:46;3.50;;;2.40;;
16304;SDS011;8261;47.678;-122.174;2022-12-24T03:15:24;4.53;;;2.70;;
16304;SDS011;8261;47.678;-122.174;2022-12-24T03:17:59;8.43;;;3.17;;
16304;SDS011;8261;47.678;-122.174;2022-12-24T03:20:36;5.90;;;3.47;;
16304;SDS011;8261;47.678;-122.174;2022-12-24T03:23:12;16.83;;;4.10;;
16304;SDS011;8261;47.678;-122.174;2022-12-24T03:25:47;8.63;;;3.73;;
16304;SDS011;8261;47.678;-122.174;2022-12-24T03:28:23;35.83;;;5.07;;
16304;SDS011;8261;47.678;-122.174;2022-12-24T03:30:59;9.37;;;4.50;;
16304;SDS011;8261;47.678;-122.174;2022-12-24T03:33:37;8.70;;;3.93;;
16304;SDS011;8261;47.678;-122.174;2022-12-24T03:36:10;7.57;;;4.07;;
16304;SDS011;8261;47.678;-122.174;2022-12-24T03:38:45;9.60;;;4.50;;
16304;SDS011;8261;47.678;-122.174;2022-12-24T03:41:18;11.23;;;5.30;;
16304;SDS011;8261;47.678;-122.174;2022-12-24T03:43:49;25.43;;;5.57;;
16304;SDS011;8261;47.678;-122.174;2022-12-24T03:46:21;15.07;;;5.87;;
16304;SDS011;8261;47.678;-122.174;2022-12-24T03:48:56;35.33;;;6.40;;
16304;SDS011;8261;47.678;-122.174;2022-12-24T03:51:30;6.10;;;5.50;;
16304;SDS011;8261;47.678;-122.174;2022-12-24T03:54:10;8.67;;;5.37;;
16304;SDS011;8261;47.678;-122.174;2022-12-24T03:56:41;6.13;;;5.47;;
16304;SDS011;8261;47.678;-122.174;2022-12-24T03:59:17;6.37;;;5.67;;
16304;SDS011;8261;47.678;-122.174;2022-12-24T04:01:51;5.77;;;5.10;;
16304;SDS011;8261;47.678;-122.174;2022-12-24T04:04:28;6.30;;;4.77;;
16304;SDS011;8261;47.678;-122.174;2022-12-24T04:07:00;7.00;;;4.40;;
16304;SDS011;8261;47.678;-122.174;2022-12-24T04:09:35;5.27;;;4.30;;
16304;SDS011;8261;47.678;-122.174;2022-12-24T04:12:08;5.27;;;3.80;;
16304;SDS011;8261;47.678;-122.174;2022-12-24T04:14:38;8.77;;;3.57;;
16304;SDS011;8261;47.678;-122.174;2022-12-24T04:17:10;5.30;;;4.03;;
16304;SDS011;8261;47.678;-122.174;2022-12-24T04:19:43;5.97;;;3.90;;
16304;SDS011;8261;47.678;-122.174;2022-12-24T04:22:25;4.87;;;3.73;;
16304;SDS011;8261;47.678;-122.174;2022-12-24T04:24:56;7.57;;;3.97;;
16304;SDS011;8261;47.678;-122.174;2022-12-24T04:27:28;6.10;;;4.07;;
16304;SDS011;8261;47.678;-122.174;2022-12-24T04:30:02;5.50;;;3.93;;
16304;SDS011;8261;47.678;-122.174;2022-12-24T04:32:35;6.23;;;4.00;;
16304;SDS011;8261;47.678;-122.174;2022-12-24T04:35:10;6.33;;;4.90;;
16304;SDS011;8261;47.678;-122.174;2022-12-24T04:37:41;6.17;;;5.50;;
16304;SDS011;8261;47.678;-122.174;2022-12-24T04:40:13;6.37;;;5.27;;
16304;SDS011;8261;47.678;-122.174;2022-12-24T04:42:44;7.47;;;6.20;;
16304;SDS011;8261;47.678;-122.174;2022-12-24T04:45:18;7.23;;;6.30;;
16304;SDS011;8261;47.678;-122.174;2022-12-24T04:47:50;7.10;;;5.40;;
16304;SDS011;8261;47.678;-122.174;2022-12-24T04:50:26;7.50;;;6.20;;
16304;SDS011;8261;47.678;-122.174;2022-12-24T04:53:09;7.00;;;5.40;;
16304;SDS011;8261;47.678;-122.174;2022-12-24T04:55:44;7.67;;;5.93;;
16304;SDS011;8261;47.678;-122.174;2022-12-24T04:58:16;7.43;;;5.07;;
16304;SDS011;8261;47.678;-122.174;2022-12-24T05:00:52;6.90;;;5.10;;
16304;SDS011;8261;47.678;-122.174;2022-12-24T05:03:30;6.77;;;4.60;;
16304;SDS011;8261;47.678;-122.174;2022-12-24T05:06:05;5.77;;;3.80;;
16304;SDS011;8261;47.678;-122.174;2022-12-24T05:08:42;4.97;;;3.53;;
16304;SDS011;8261;47.678;-122.174;2022-12-24T05:11:16;4.83;;;3.80;;
16304;SDS011;8261;47.678;-122.174;2022-12-24T05:13:48;5.23;;;3.80;;
16304;SDS011;8261;47.678;-122.174;2022-12-24T05:16:23;4.13;;;3.40;;
16304;SDS011;8261;47.678;-122.174;2022-12-24T05:18:56;6.27;;;4.50;;
16304;SDS011;8261;47.678;-122.174;2022-12-24T05:24:38;10.70;;;7.20;;
16304;SDS011;8261;47.678;-122.174;2022-12-24T05:27:25;10.90;;;8.47;;
16304;SDS011;8261;47.678;-122.174;2022-12-24T05:29:59;12.20;;;6.17;;
16304;SDS011;8261;47.678;-122.174;2022-12-24T05:32:31;9.90;;;6.40;;
16304;SDS011;8261;47.678;-122.174;2022-12-24T05:35:05;15.57;;;5.53;;
16304;SDS011;8261;47.678;-122.174;2022-12-24T05:37:40;6.40;;;4.73;;
16304;SDS011;8261;47.678;-122.174;2022-12-24T05:40:13;6.70;;;4.67;;
16304;SDS011;8261;47.678;-122.174;2022-12-24T05:42:50;7.57;;;5.00;;
16304;SDS011;8261;47.678;-122.174;2022-12-24T05:45:28;7.30;;;5.03;;
16304;SDS011;8261;47.678;-122.174;2022-12-24T05:48:04;7.97;;;5.43;;
16304;SDS011;8261;47.678;-122.174;2022-12-24T05:50:40;9.57;;;6.40;;
16304;SDS011;8261;47.678;-122.174;2022-12-24T05:53:14;6.83;;;5.37;;
16304;SDS011;8261;47.678;-122.174;2022-12-24T05:55:46;9.33;;;6.03;;
16304;SDS011;8261;47.678;-122.174;2022-12-24T05:58:23;9.30;;;6.40;;
16304;SDS011;8261;47.678;-122.174;2022-12-24T06:00:59;10.47;;;5.80;;
16304;SDS011;8261;47.678;-122.174;2022-12-24T06:03:32;10.13;;;5.63;;
16304;SDS011;8261;47.678;-122.174;2022-12-24T06:06:04;9.07;;;6.13;;
16304;SDS011;8261;47.678;-122.174;2022-12-24T06:08:40;10.37;;;5.57;;
16304;SDS011;8261;47.678;-122.174;2022-12-24T06:11:12;8.37;;;5.33;;
16304;SDS011;8261;47.678;-122.174;2022-12-24T06:13:46;7.57;;;5.00;;
16304;SDS011;8261;47.678;-122.174;2022-12-24T06:16:25;5.73;;;4.33;;
16304;SDS011;8261;47.678;-122.174;2022-12-24T06:18:56;6.33;;;3.73;;
16304;SDS011;8261;47.678;-122.174;2022-12-24T06:21:29;5.03;;;3.60;;
16304;SDS011;8261;47.678;-122.174;2022-12-24T06:24:02;6.73;;;3.50;;
16304;SDS011;8261;47.678;-122.174;2022-12-24T06:26:34;4.03;;;3.33;;
16304;SDS011;8261;47.678;-122.174;2022-12-24T06:29:07;4.70;;;3.50;;
16304;SDS011;8261;47.678;-122.174;2022-12-24T06:31:41;5.70;;;4.07;;
16304;SDS011;8261;47.678;-122.174;2022-12-24T06:34:12;9.90;;;3.83;;
16304;SDS011;8261;47.678;-122.174;2022-12-24T06:36:44;6.93;;;4.40;;
16304;SDS011;8261;47.678;-122.174;2022-12-24T06:39:21;4.67;;;3.50;;
16304;SDS011;8261;47.678;-122.174;2022-12-24T06:41:53;4.53;;;3.63;;
16304;SDS011;8261;47.678;-122.174;2022-12-24T06:44:25;5.53;;;3.30;;
16304;SDS011;8261;47.678;-122.174;2022-12-24T06:46:58;3.47;;;2.90;;
16304;SDS011;8261;47.678;-122.174;2022-12-24T06:49:30;4.10;;;3.17;;
16304;SDS011;8261;47.678;-122.174;2022-12-24T06:52:08;4.67;;;3.77;;
16304;SDS011;8261;47.678;-122.174;2022-12-24T06:54:42;5.30;;;3.93;;
16304;SDS011;8261;47.678;-122.174;2022-12-24T06:57:14;6.20;;;4.03;;
16304;SDS011;8261;47.678;-122.174;2022-12-24T06:59:47;5.23;;;3.67;;
16304;SDS011;8261;47.678;-122.174;2022-12-24T07:02:21;5.47;;;3.30;;
16304;SDS011;8261;47.678;-122.174;2022-12-24T07:04:58;5.10;;;3.67;;
16304;SDS011;8261;47.678;-122.174;2022-12-24T07:07:30;3.67;;;3.13;;
16304;SDS011;8261;47.678;-122.174;2022-12-24T07:10:06;4.80;;;3.87;;
16304;SDS011;8261;47.678;-122.174;2022-12-24T07:12:39;8.07;;;5.10;;
16304;SDS011;8261;47.678;-122.174;2022-12-24T07:15:10;6.87;;;5.40;;
16304;SDS011;8261;47.678;-122.174;2022-12-24T07:17:42;6.37;;;4.63;;
16304;SDS011;8261;47.678;-122.174;2022-12-24T07:20:16;9.30;;;5.40;;
16304;SDS011;8261;47.678;-122.174;2022-12-24T07:22:53;6.33;;;4.47;;
16304;SDS011;8261;47.678;-122.174;2022-12-24T07:25:28;8.47;;;4.63;;
16304;SDS011;8261;47.678;-122.174;2022-12-24T07:28:00;7.40;;;4.13;;
16304;SDS011;8261;47.678;-122.174;2022-12-24T07:30:34;7.77;;;4.23;;
16304;SDS011;8261;47.678;-122.174;2022-12-24T07:33:07;5.00;;;3.60;;
16304;SDS011;8261;47.678;-122.174;2022-12-24T07:35:46;5.53;;;3.00;;
16304;SDS011;8261;47.678;-122.174;2022-12-24T07:38:21;5.87;;;3.37;;
16304;SDS011;8261;47.678;-122.174;2022-12-24T07:43:41;5.73;;;2.97;;
16304;SDS011;8261;47.678;-122.174;2022-12-24T07:46:12;6.33;;;3.03;;
16304;SDS011;8261;47.678;-122.174;2022-12-24T07:48:43;6.10;;;2.97;;
16304;SDS011;8261;47.678;-122.174;2022-12-24T07:51:14;4.23;;;2.60;;
16304;SDS011;8261;47.678;-122.174;2022-12-24T07:53:46;2.87;;;2.23;;
16304;SDS011;8261;47.678;-122.174;2022-12-24T07:56:21;3.20;;;2.47;;
16304;SDS011;8261;47.678;-122.174;2022-12-24T07:58:54;3.80;;;2.37;;
16304;SDS011;8261;47.678;-122.174;2022-12-24T08:01:25;3.37;;;2.33;;
16304;SDS011;8261;47.678;-122.174;2022-12-24T08:03:56;3.63;;;2.03;;
16304;SDS011;8261;47.678;-122.174;2022-12-24T08:06:28;3.37;;;2.50;;
16304;SDS011;8261;47.678;-122.174;2022-12-24T08:09:01;2.60;;;2.00;;
16304;SDS011;8261;47.678;-122.174;2022-12-24T08:11:38;3.70;;;2.27;;
16304;SDS011;8261;47.678;-122.174;2022-12-24T08:14:18;3.73;;;2.10;;
16304;SDS011;8261;47.678;-122.174;2022-12-24T08:16:49;4.23;;;1.77;;
16304;SDS011;8261;47.678;-122.174;2022-12-24T08:19:21;4.67;;;2.27;;
16304;SDS011;8261;47.678;-122.174;2022-12-24T08:21:52;3.70;;;2.00;;
16304;SDS011;8261;47.678;-122.174;2022-12-24T08:24:26;3.90;;;2.50;;
16304;SDS011;8261;47.678;-122.174;2022-12-24T08:27:02;4.70;;;2.50;;
16304;SDS011;8261;47.678;-122.174;2022-12-24T08:29:38;5.43;;;2.30;;
16304;SDS011;8261;47.678;-122.174;2022-12-24T08:32:09;3.47;;;2.20;;
16304;SDS011;8261;47.678;-122.174;2022-12-24T08:34:41;2.90;;;1.90;;
16304;SDS011;8261;47.678;-122.174;2022-12-24T08:37:17;3.80;;;2.50;;
16304;SDS011;8261;47.678;-122.174;2022-12-24T08:39:51;3.30;;;1.80;;
